Perry, Texas
Current Conditions -  °F | °C
As of 2:55 PM on Friday 19 Dec 2014 (Local Time) from KCNW Reporting Station
Haze Haze  
Wind Chill: 50°   Ceiling: 900
Heat Index: 50°   Visibility: 7mi
Dew Point: 48°   Wind: 13mph
Humidity: 94%   Direction: 360°N
Pressure: 30.13"   Gusts: NA
Location:  31.42°N, 96.91°W
Report Text: KCNW 192055Z 36011KT 7SM BR BKN009 OVC013 10/09 A3013
Loading
Personal Weather Stations






























Interactive Weather Map New forecast layout! Learn more

10-Day Weather Forecast

Advertisements
Track Severe Weather on mobile